Terminal Aerodrome Forecast
Issued by NWS Sterling, VA

Current Version | Previous Version | Text Only | Print | Product List | Glossary Off
Versions: 1 2 3 4 5 6 7 8 9 10 11 12 13 14 15

000
FTUS41 KLWX 151100
TAFMRB
TAF
KMRB 151132Z 1512/1612 18013KT 5SM -SHRA BKN035
     FM151400 20013KT 3SM SHRA OVC025
     FM151600 24012KT 3SM -SHRA OVC020
     FM151700 29014KT 3SM -SHRA OVC025
     FM151800 30014KT P6SM -SHRA OVC025
     FM152200 31019G29KT P6SM OVC040
     FM160400 32018G27KT P6SM FEW040 SCT200
     FM160900 32012KT P6SM FEW250=

USA.gov is the U.S. government's official web portal to all federal, state and local government web resources and services.